Time;durP1;ratioP1;P1;durP2;ratioP2;P2;SDS_P1;SDS_P2;PMS_P1;PMS_P2;Temp;Humidity;BMP_temperature;BMP_pressure;BME280_temperature;BME280_humidity;BME280_pressure;Samples;Min_cycle;Max_cycle;Signal;HPM_P1;HPM_P2
2023/05/14 00:01:55;;;;;;;1.00;0.50;;;9.60;99.90;;;;;;5044660;28;20526;-58
2023/05/14 00:04:22;;;;;;;1.33;0.70;;;9.70;99.90;;;;;;5052113;28;20971;-59
2023/05/14 00:06:49;;;;;;;1.10;0.70;;;9.60;99.90;;;;;;5052523;28;20494;-56
2023/05/14 00:09:16;;;;;;;1.00;0.70;;;9.70;99.90;;;;;;5052788;28;20488;-58
2023/05/14 00:11:43;;;;;;;2.07;0.70;;;9.60;99.90;;;;;;5052883;28;20453;-58
2023/05/14 00:14:10;;;;;;;1.23;0.60;;;9.70;99.90;;;;;;5042291;28;20559;-58
2023/05/14 00:16:39;;;;;;;1.30;0.70;;;9.60;99.90;;;;;;5032518;28;20558;-59
2023/05/14 00:19:06;;;;;;;1.63;0.77;;;9.50;99.90;;;;;;5032295;28;20530;-58
2023/05/14 00:21:32;;;;;;;1.10;0.90;;;9.50;99.90;;;;;;5031203;28;20504;-57
2023/05/14 00:23:59;;;;;;;2.03;0.80;;;9.40;99.90;;;;;;5031264;28;21044;-57
2023/05/14 00:26:26;;;;;;;0.97;0.63;;;9.20;99.90;;;;;;5042336;28;20508;-59
2023/05/14 00:28:53;;;;;;;1.30;0.80;;;9.30;99.90;;;;;;5050879;28;20537;-58
2023/05/14 00:31:20;;;;;;;1.10;0.70;;;9.30;99.90;;;;;;5051095;28;20466;-59
2023/05/14 00:33:48;;;;;;;1.33;0.80;;;9.30;99.90;;;;;;5051394;28;20470;-57
2023/05/14 00:36:15;;;;;;;0.90;0.60;;;9.30;99.90;;;;;;5052306;28;20549;-58
2023/05/14 00:38:42;;;;;;;1.77;0.90;;;9.20;99.90;;;;;;5052275;28;20537;-58
2023/05/14 00:41:09;;;;;;;1.10;0.70;;;9.20;99.90;;;;;;5050204;28;20485;-58
2023/05/14 00:43:36;;;;;;;1.00;0.63;;;9.20;99.90;;;;;;5050927;28;20608;-58
2023/05/14 00:46:03;;;;;;;1.63;0.70;;;9.20;99.90;;;;;;5030681;28;20553;-58
2023/05/14 00:48:30;;;;;;;0.90;0.60;;;9.00;99.90;;;;;;5030896;28;20521;-57
2023/05/14 00:50:58;;;;;;;1.27;0.80;;;8.90;99.90;;;;;;5030994;28;21005;-59
2023/05/14 00:53:25;;;;;;;1.10;0.70;;;8.90;99.90;;;;;;5030579;28;20506;-58
2023/05/14 00:55:52;;;;;;;1.10;0.60;;;9.10;99.90;;;;;;5032265;28;20470;-58
2023/05/14 00:58:20;;;;;;;1.00;0.70;;;9.10;99.90;;;;;;5031954;28;20510;-58
2023/05/14 01:00:47;;;;;;;1.40;0.70;;;9.10;99.90;;;;;;5031513;28;20941;-58
2023/05/14 01:03:14;;;;;;;2.33;0.90;;;9.10;99.90;;;;;;5037420;28;20472;-56
2023/05/14 01:05:49;;;;;;;1.00;0.60;;;9.00;99.90;;;;;;5051852;28;20968;-59
2023/05/14 01:08:29;;;;;;;1.20;0.70;;;8.80;99.90;;;;;;5051914;28;20474;-59
2023/05/14 01:11:03;;;;;;;2.90;1.07;;;8.90;99.90;;;;;;5051843;28;20528;-58
2023/05/14 01:13:48;;;;;;;1.30;0.80;;;8.90;99.90;;;;;;5051799;28;20483;-58
2023/05/14 01:16:18;;;;;;;1.40;0.80;;;8.90;99.90;;;;;;5052021;28;20501;-58
2023/05/14 01:18:48;;;;;;;1.53;0.70;;;8.90;99.90;;;;;;5051545;28;21015;-58
2023/05/14 01:21:34;;;;;;;1.10;0.70;;;8.80;99.90;;;;;;5051673;28;20529;-57
2023/05/14 01:24:01;;;;;;;1.60;0.83;;;8.80;99.90;;;;;;5051134;28;20442;-59
2023/05/14 01:26:29;;;;;;;3.30;0.80;;;8.80;99.90;;;;;;5051296;28;20881;-59
2023/05/14 01:29:01;;;;;;;1.10;0.80;;;8.80;99.90;;;;;;5051681;28;20598;-58
2023/05/14 01:31:31;;;;;;;5.70;1.30;;;8.80;99.90;;;;;;5051330;28;20525;-57
2023/05/14 01:33:59;;;;;;;1.83;0.90;;;8.80;99.90;;;;;;5052106;28;20477;-58
2023/05/14 01:36:28;;;;;;;1.10;0.90;;;8.80;99.90;;;;;;5052338;28;20461;-58
2023/05/14 01:38:56;;;;;;;1.20;0.87;;;8.90;99.90;;;;;;5052200;28;21081;-60
2023/05/14 01:41:25;;;;;;;1.07;0.80;;;8.90;99.90;;;;;;5052176;28;20473;-58
2023/05/14 01:43:52;;;;;;;1.03;0.60;;;8.70;99.90;;;;;;5051945;28;20438;-59
2023/05/14 01:46:19;;;;;;;1.30;0.60;;;8.70;99.90;;;;;;5052360;28;20505;-58
2023/05/14 01:48:46;;;;;;;1.00;0.80;;;8.60;99.90;;;;;;5051953;28;20441;-59
2023/05/14 01:51:13;;;;;;;1.30;0.93;;;8.60;99.90;;;;;;5051939;28;20469;-58
2023/05/14 01:53:42;;;;;;;0.97;0.50;;;8.70;99.90;;;;;;5051687;28;20515;-58
2023/05/14 01:56:09;;;;;;;2.20;0.70;;;8.80;99.90;;;;;;5051808;28;20556;-59
2023/05/14 01:58:36;;;;;;;1.73;0.70;;;8.70;99.90;;;;;;5051831;28;20499;-59
2023/05/14 02:01:03;;;;;;;1.30;0.70;;;8.70;99.90;;;;;;5050994;28;20445;-58
2023/05/14 02:03:29;;;;;;;1.20;0.70;;;8.70;99.90;;;;;;5052056;28;20483;-57
2023/05/14 02:05:56;;;;;;;1.43;0.80;;;8.80;99.90;;;;;;5051789;28;20469;-61
2023/05/14 02:08:23;;;;;;;1.20;0.70;;;8.70;99.90;;;;;;5051887;28;20473;-58
2023/05/14 02:10:52;;;;;;;1.93;1.00;;;8.70;99.90;;;;;;5051466;28;20481;-58
2023/05/14 02:13:19;;;;;;;2.37;1.40;;;8.80;99.90;;;;;;5051411;28;20529;-59
2023/05/14 02:15:46;;;;;;;1.87;0.70;;;8.90;99.90;;;;;;5050940;28;20505;-57
2023/05/14 02:18:12;;;;;;;1.13;0.60;;;9.00;99.90;;;;;;5051681;28;20504;-59
2023/05/14 02:20:39;;;;;;;2.00;0.87;;;8.90;99.90;;;;;;5051458;28;20438;-58
2023/05/14 02:23:06;;;;;;;1.50;1.17;;;8.90;99.90;;;;;;5051796;28;20520;-60
2023/05/14 02:25:33;;;;;;;2.70;0.83;;;8.80;99.90;;;;;;5051447;28;20497;-61
2023/05/14 02:28:01;;;;;;;1.30;0.90;;;8.70;99.90;;;;;;5051576;28;20480;-58
2023/05/14 02:30:30;;;;;;;1.40;1.03;;;8.80;99.90;;;;;;5051382;28;20520;-57
2023/05/14 02:32:57;;;;;;;1.80;1.17;;;8.80;99.90;;;;;;5051259;28;21010;-57
2023/05/14 02:35:24;;;;;;;1.67;1.20;;;8.80;99.90;;;;;;5051045;28;20911;-58
2023/05/14 02:37:50;;;;;;;1.30;0.80;;;8.80;99.90;;;;;;5051118;28;20525;-57
2023/05/14 02:40:17;;;;;;;1.63;0.87;;;8.80;99.90;;;;;;5050576;28;20525;-59
2023/05/14 02:42:44;;;;;;;3.00;0.90;;;8.70;99.90;;;;;;5051419;28;20501;-58
2023/05/14 02:45:13;;;;;;;1.47;0.80;;;8.60;99.90;;;;;;5051020;28;20476;-58
2023/05/14 02:47:40;;;;;;;2.60;1.23;;;8.60;99.90;;;;;;5051083;28;21022;-58
2023/05/14 02:50:08;;;;;;;1.30;0.80;;;8.50;99.90;;;;;;5051100;28;20469;-58
2023/05/14 02:52:35;;;;;;;1.53;0.70;;;8.60;99.90;;;;;;5051084;28;20546;-60
2023/05/14 02:55:02;;;;;;;1.40;0.90;;;8.50;99.90;;;;;;5050898;28;20995;-60
2023/05/14 02:57:29;;;;;;;2.10;0.93;;;8.50;99.90;;;;;;5051142;28;20505;-59
2023/05/14 02:59:56;;;;;;;1.47;0.83;;;8.60;99.90;;;;;;5050619;28;20533;-57
2023/05/14 03:02:24;;;;;;;1.30;0.80;;;8.60;99.90;;;;;;5051207;28;20476;-58
2023/05/14 03:04:51;;;;;;;1.10;0.60;;;8.70;99.90;;;;;;5050662;28;20591;-57
2023/05/14 03:07:18;;;;;;;1.00;0.70;;;8.60;99.90;;;;;;5050732;28;20802;-57
2023/05/14 03:09:45;;;;;;;1.33;0.60;;;8.50;99.90;;;;;;5050835;28;20495;-58
2023/05/14 03:12:13;;;;;;;1.90;0.90;;;8.40;99.90;;;;;;5050872;28;20452;-59
2023/05/14 03:14:40;;;;;;;2.00;0.63;;;8.50;99.90;;;;;;5050743;28;21002;-60
2023/05/14 03:17:07;;;;;;;1.50;0.63;;;8.20;99.90;;;;;;5051223;28;20526;-59
2023/05/14 03:19:35;;;;;;;1.00;0.70;;;8.20;99.90;;;;;;5051022;28;20474;-59
2023/05/14 03:22:02;;;;;;;1.17;0.80;;;8.30;99.90;;;;;;5050701;28;20472;-57
2023/05/14 03:24:29;;;;;;;1.27;0.83;;;8.30;99.90;;;;;;5050914;28;20525;-58
2023/05/14 03:26:56;;;;;;;2.27;0.93;;;8.40;99.90;;;;;;5052702;28;20505;-59
2023/05/14 03:29:23;;;;;;;1.77;0.90;;;8.30;99.90;;;;;;5054859;28;20480;-59
2023/05/14 03:31:50;;;;;;;1.60;0.87;;;8.20;99.90;;;;;;5054211;28;20503;-59
2023/05/14 03:34:17;;;;;;;1.83;0.90;;;8.10;99.90;;;;;;5054381;28;20924;-57
2023/05/14 03:36:45;;;;;;;1.43;0.70;;;8.20;99.90;;;;;;5054745;28;20487;-57
2023/05/14 03:39:14;;;;;;;1.53;1.03;;;8.20;99.90;;;;;;5054968;28;20473;-57
2023/05/14 03:41:41;;;;;;;1.00;0.70;;;8.20;99.90;;;;;;5054580;28;20455;-58
2023/05/14 03:44:08;;;;;;;1.33;1.00;;;8.10;99.90;;;;;;5052848;28;20437;-58
2023/05/14 03:46:35;;;;;;;1.50;1.00;;;8.20;99.90;;;;;;5053032;28;20976;-58
2023/05/14 03:49:02;;;;;;;1.57;0.70;;;8.30;99.90;;;;;;5053380;28;20533;-60
2023/05/14 03:51:29;;;;;;;1.60;1.30;;;8.30;99.90;;;;;;5053126;28;20461;-58
2023/05/14 03:53:57;;;;;;;1.30;0.90;;;8.50;99.90;;;;;;5052934;28;20635;-57
2023/05/14 03:56:24;;;;;;;1.00;0.70;;;8.30;99.90;;;;;;5052726;28;20473;-58
2023/05/14 03:58:52;;;;;;;1.40;0.63;;;8.40;99.90;;;;;;5035937;28;20461;-55
2023/05/14 04:01:19;;;;;;;1.27;0.83;;;8.40;99.90;;;;;;5045104;28;20524;-57
2023/05/14 04:03:45;;;;;;;1.70;1.00;;;8.50;99.90;;;;;;5053914;28;20476;-57
2023/05/14 04:06:12;;;;;;;1.20;0.90;;;8.40;99.90;;;;;;5046763;28;20537;-56
2023/05/14 04:08:39;;;;;;;1.20;0.73;;;8.40;99.90;;;;;;5043344;28;20528;-57
2023/05/14 04:11:08;;;;;;;1.20;0.57;;;8.50;99.90;;;;;;5044534;28;20516;-58
2023/05/14 04:13:35;;;;;;;1.03;0.73;;;8.60;99.90;;;;;;5042323;28;20442;-58
2023/05/14 04:16:02;;;;;;;1.87;1.30;;;8.60;99.90;;;;;;5043500;28;20514;-56
2023/05/14 04:18:29;;;;;;;2.67;1.50;;;8.60;99.90;;;;;;5042338;28;20530;-58
2023/05/14 04:20:56;;;;;;;2.83;2.00;;;8.50;99.90;;;;;;5043477;28;20517;-58
2023/05/14 04:23:23;;;;;;;2.53;1.90;;;8.60;99.90;;;;;;5042328;28;20551;-57
2023/05/14 04:25:50;;;;;;;2.07;1.70;;;8.30;99.90;;;;;;5043401;28;20503;-59
2023/05/14 04:28:18;;;;;;;2.10;1.90;;;8.20;99.90;;;;;;5044025;28;20857;-59
2023/05/14 04:30:45;;;;;;;2.67;2.37;;;8.20;99.90;;;;;;5045120;28;20537;-57
2023/05/14 04:33:12;;;;;;;1.80;1.43;;;8.40;99.90;;;;;;5049535;28;20521;-57
2023/05/14 04:35:39;;;;;;;1.33;1.20;;;8.40;99.90;;;;;;5052721;28;20568;-57
2023/05/14 04:38:06;;;;;;;2.40;1.63;;;8.50;99.90;;;;;;5041834;28;20517;-59
2023/05/14 04:40:33;;;;;;;1.37;1.00;;;8.70;99.90;;;;;;5043300;28;20473;-60
2023/05/14 04:43:00;;;;;;;1.40;1.20;;;8.90;99.90;;;;;;5043634;28;20444;-60
2023/05/14 04:45:28;;;;;;;2.07;1.80;;;9.00;99.90;;;;;;5041146;28;20493;-58
2023/05/14 04:47:55;;;;;;;2.10;1.70;;;9.10;99.90;;;;;;5043963;28;20481;-58
2023/05/14 04:50:22;;;;;;;2.43;2.20;;;9.10;99.90;;;;;;5044329;28;20442;-59
2023/05/14 04:52:49;;;;;;;2.57;1.90;;;9.10;99.90;;;;;;5045043;28;20518;-59
2023/05/14 04:55:16;;;;;;;2.20;1.90;;;8.90;99.90;;;;;;5044409;28;20469;-58
2023/05/14 04:57:43;;;;;;;2.77;2.20;;;8.80;99.90;;;;;;5042129;28;20434;-59
2023/05/14 05:00:12;;;;;;;2.73;2.13;;;8.80;99.90;;;;;;5041656;28;20481;-59
2023/05/14 05:02:40;;;;;;;2.80;2.07;;;8.70;99.90;;;;;;5043611;28;20442;-58
2023/05/14 05:05:07;;;;;;;2.83;2.07;;;8.90;99.90;;;;;;5043264;28;21002;-59
2023/05/14 05:07:34;;;;;;;3.20;1.20;;;8.90;99.90;;;;;;5043719;28;20449;-59
2023/05/14 05:10:01;;;;;;;1.67;1.10;;;8.80;99.90;;;;;;5043807;28;20537;-58
2023/05/14 05:12:29;;;;;;;1.20;1.10;;;8.90;99.90;;;;;;5042882;28;20478;-58
2023/05/14 05:14:56;;;;;;;2.17;1.60;;;9.10;99.90;;;;;;5041413;28;20478;-59
2023/05/14 05:17:23;;;;;;;1.40;1.03;;;9.20;99.90;;;;;;5042809;28;20910;-58
2023/05/14 05:19:51;;;;;;;3.77;1.50;;;9.30;99.90;;;;;;5042179;28;20474;-58
2023/05/14 05:22:19;;;;;;;23.20;14.87;;;9.40;99.90;;;;;;5043665;28;20445;-58
2023/05/14 05:24:46;;;;;;;27.20;20.30;;;9.50;99.90;;;;;;5041713;28;20814;-58
2023/05/14 05:27:13;;;;;;;6.17;3.40;;;9.40;99.90;;;;;;5041539;28;20852;-58
2023/05/14 05:29:40;;;;;;;4.87;4.37;;;9.40;99.90;;;;;;5042949;28;20493;-59
2023/05/14 05:32:08;;;;;;;2.50;2.30;;;9.40;99.90;;;;;;5041907;28;20438;-58
2023/05/14 05:34:35;;;;;;;2.70;2.17;;;9.60;99.90;;;;;;5040892;28;20513;-58
2023/05/14 05:37:04;;;;;;;2.20;2.00;;;9.60;99.90;;;;;;5043177;28;20459;-58
2023/05/14 05:39:33;;;;;;;3.47;2.07;;;9.30;99.90;;;;;;5042260;28;20453;-58
2023/05/14 05:42:01;;;;;;;2.10;1.90;;;9.20;99.90;;;;;;5042913;28;20438;-58
2023/05/14 05:44:28;;;;;;;7.53;1.80;;;9.20;99.90;;;;;;5046185;28;20824;-58
2023/05/14 05:46:56;;;;;;;2.60;1.80;;;9.40;99.90;;;;;;5045964;28;20494;-58
2023/05/14 05:49:23;;;;;;;2.37;2.17;;;9.60;99.90;;;;;;5045595;28;20446;-59
2023/05/14 05:51:50;;;;;;;4.33;3.83;;;9.60;99.90;;;;;;5041342;28;21026;-58
2023/05/14 05:54:18;;;;;;;3.60;2.47;;;9.30;99.90;;;;;;5042650;28;20518;-56
2023/05/14 05:56:45;;;;;;;2.00;1.80;;;9.40;99.90;;;;;;5040961;28;20549;-56
2023/05/14 05:59:12;;;;;;;1.53;1.33;;;9.30;99.90;;;;;;5041156;28;20465;-59
2023/05/14 06:01:39;;;;;;;2.20;1.77;;;9.40;99.90;;;;;;5041881;28;20444;-57
2023/05/14 06:04:06;;;;;;;2.63;2.43;;;9.50;99.90;;;;;;5041434;28;20445;-59
2023/05/14 06:06:33;;;;;;;3.07;2.87;;;9.70;99.90;;;;;;5040436;28;21003;-59
2023/05/14 06:09:00;;;;;;;3.40;3.10;;;9.70;99.90;;;;;;5042887;28;20477;-57
2023/05/14 06:11:29;;;;;;;2.50;2.30;;;9.80;99.90;;;;;;5040732;28;20502;-56
2023/05/14 06:13:55;;;;;;;3.70;2.73;;;9.90;99.90;;;;;;5040251;28;20530;-56
2023/05/14 06:16:22;;;;;;;2.80;2.57;;;10.00;99.90;;;;;;5041768;28;20562;-56
2023/05/14 06:18:51;;;;;;;3.10;2.37;;;9.90;99.90;;;;;;5040830;28;20479;-56
2023/05/14 06:21:18;;;;;;;2.70;2.50;;;9.90;99.90;;;;;;5042512;28;20442;-58
2023/05/14 06:23:45;;;;;;;3.97;3.30;;;9.70;99.90;;;;;;5041935;28;20466;-56
2023/05/14 06:26:12;;;;;;;2.30;1.97;;;9.70;99.90;;;;;;5041291;28;20490;-55
2023/05/14 06:28:40;;;;;;;2.80;2.20;;;9.70;99.90;;;;;;5042022;28;20442;-59
2023/05/14 06:31:07;;;;;;;2.47;2.10;;;9.90;99.90;;;;;;5041791;28;20545;-57
2023/05/14 06:33:34;;;;;;;2.00;1.80;;;9.60;99.90;;;;;;5042356;28;20475;-58
2023/05/14 06:36:04;;;;;;;4.33;2.30;;;9.60;99.90;;;;;;5041820;28;20481;-58
2023/05/14 06:38:31;;;;;;;2.40;2.00;;;9.80;99.90;;;;;;5040952;28;20476;-58
2023/05/14 06:40:57;;;;;;;2.30;1.77;;;9.70;99.90;;;;;;5041212;28;20468;-59
2023/05/14 06:43:24;;;;;;;2.20;2.00;;;9.80;99.90;;;;;;5046574;28;20520;-55
2023/05/14 06:45:53;;;;;;;2.73;1.90;;;10.00;99.90;;;;;;5040398;28;20683;-59
2023/05/14 06:48:20;;;;;;;7.97;4.90;;;10.20;99.90;;;;;;5041751;28;20539;-56
2023/05/14 06:50:48;;;;;;;3.00;2.20;;;10.30;99.90;;;;;;5040129;28;20528;-56
2023/05/14 06:53:15;;;;;;;5.90;4.13;;;10.30;99.90;;;;;;5039263;28;20566;-56
2023/05/14 06:55:42;;;;;;;3.30;2.10;;;10.30;99.90;;;;;;5041596;28;20572;-56
2023/05/14 06:58:09;;;;;;;2.23;1.80;;;10.30;99.90;;;;;;5040541;28;20436;-56
2023/05/14 07:00:36;;;;;;;2.03;1.83;;;10.20;99.90;;;;;;5039824;28;20517;-57
2023/05/14 07:03:04;;;;;;;2.70;1.70;;;10.30;99.90;;;;;;5041322;28;20891;-56
2023/05/14 07:05:31;;;;;;;2.03;1.77;;;10.30;99.90;;;;;;5046862;28;20539;-56
2023/05/14 07:07:58;;;;;;;2.57;2.10;;;10.30;99.90;;;;;;5039693;28;20950;-57
2023/05/14 07:10:25;;;;;;;2.43;1.80;;;9.90;99.90;;;;;;5042705;28;20522;-57
2023/05/14 07:12:52;;;;;;;3.20;2.00;;;10.10;99.90;;;;;;5041275;28;20865;-56
2023/05/14 07:15:20;;;;;;;2.30;2.10;;;10.10;99.90;;;;;;5038341;28;20556;-56
2023/05/14 07:17:46;;;;;;;3.00;2.13;;;10.20;99.90;;;;;;5041338;28;20499;-55
2023/05/14 07:20:15;;;;;;;2.77;2.00;;;10.40;99.90;;;;;;5041437;28;20490;-55
2023/05/14 07:22:42;;;;;;;2.83;2.07;;;10.60;99.90;;;;;;5043202;28;20517;-57
2023/05/14 07:25:09;;;;;;;3.00;1.70;;;10.70;99.90;;;;;;5043753;28;20470;-56
2023/05/14 07:27:36;;;;;;;2.90;1.73;;;10.70;99.90;;;;;;5041362;28;20438;-55
2023/05/14 07:30:03;;;;;;;2.97;1.87;;;10.80;99.90;;;;;;5041290;28;20523;-56
2023/05/14 07:32:30;;;;;;;3.20;2.30;;;10.70;99.90;;;;;;5044693;28;20438;-56
2023/05/14 07:34:56;;;;;;;2.27;2.07;;;10.80;99.90;;;;;;5050508;28;20532;-56
2023/05/14 07:37:25;;;;;;;2.57;2.03;;;10.80;99.90;;;;;;5048789;28;20490;-55
2023/05/14 07:39:52;;;;;;;2.33;1.70;;;10.90;99.90;;;;;;5048200;28;20437;-56
2023/05/14 07:42:19;;;;;;;2.00;1.60;;;10.90;99.90;;;;;;5036253;28;20531;-55
2023/05/14 07:44:46;;;;;;;2.27;1.80;;;10.90;99.90;;;;;;5030299;28;20528;-57
2023/05/14 07:47:13;;;;;;;2.30;1.70;;;11.00;99.90;;;;;;5029726;28;20996;-56
2023/05/14 07:49:40;;;;;;;2.27;1.70;;;11.00;99.90;;;;;;5040062;28;20877;-56
2023/05/14 07:52:07;;;;;;;1.50;1.40;;;11.00;99.90;;;;;;5050138;28;20845;-56
2023/05/14 07:54:35;;;;;;;2.60;1.57;;;11.00;99.90;;;;;;5048766;28;20580;-56
2023/05/14 07:57:02;;;;;;;1.90;1.70;;;11.00;99.90;;;;;;5043219;28;20500;-56
2023/05/14 07:59:30;;;;;;;2.60;2.07;;;11.10;99.90;;;;;;5041370;28;20940;-56
2023/05/14 08:01:56;;;;;;;3.23;1.73;;;11.10;99.90;;;;;;5050163;28;20447;-55
2023/05/14 08:04:23;;;;;;;2.50;2.10;;;11.10;99.90;;;;;;5049537;28;20510;-57
2023/05/14 08:06:50;;;;;;;1.67;1.53;;;11.20;99.90;;;;;;5049825;28;20488;-55
2023/05/14 08:09:17;;;;;;;2.30;1.63;;;11.30;99.90;;;;;;5049767;28;21018;-56
2023/05/14 08:11:45;;;;;;;2.03;1.20;;;11.30;99.90;;;;;;5050226;28;20547;-56
2023/05/14 08:14:12;;;;;;;1.70;1.57;;;11.30;99.90;;;;;;5050862;28;20518;-55
2023/05/14 08:16:39;;;;;;;1.40;1.20;;;11.20;99.90;;;;;;5043348;28;20567;-53
2023/05/14 08:19:06;;;;;;;1.80;1.37;;;11.20;99.90;;;;;;5045711;28;20466;-55
2023/05/14 08:21:33;;;;;;;2.60;1.73;;;11.20;99.90;;;;;;5052488;28;21063;-56
2023/05/14 08:24:00;;;;;;;2.83;1.20;;;11.20;99.90;;;;;;5052128;28;21212;-56
2023/05/14 08:26:27;;;;;;;3.83;1.03;;;11.30;99.90;;;;;;5052604;28;20499;-57
2023/05/14 08:28:55;;;;;;;1.70;1.60;;;11.30;99.90;;;;;;5053457;28;20448;-55
2023/05/14 08:31:22;;;;;;;2.00;1.50;;;11.30;99.90;;;;;;5053384;28;20519;-56
2023/05/14 08:33:49;;;;;;;1.57;1.40;;;11.40;99.90;;;;;;5052365;28;20475;-56
2023/05/14 08:36:16;;;;;;;1.47;1.33;;;11.60;99.90;;;;;;5053437;28;20927;-56
2023/05/14 08:38:44;;;;;;;2.00;1.33;;;11.70;99.90;;;;;;5053104;28;20441;-56
2023/05/14 08:41:12;;;;;;;1.10;0.83;;;11.70;99.90;;;;;;5053497;28;20454;-57
2023/05/14 08:43:44;;;;;;;1.63;1.50;;;11.70;99.90;;;;;;5053738;28;20531;-57
2023/05/14 08:46:14;;;;;;;1.90;1.30;;;11.70;99.90;;;;;;5052990;28;20975;-56
2023/05/14 08:48:43;;;;;;;1.63;1.53;;;11.80;99.90;;;;;;5051608;28;20490;-57
2023/05/14 08:51:10;;;;;;;1.60;1.40;;;11.90;99.90;;;;;;5052922;28;20476;-56
2023/05/14 08:53:39;;;;;;;1.93;1.30;;;11.90;99.90;;;;;;5053148;28;20480;-56
2023/05/14 08:56:08;;;;;;;1.87;1.23;;;11.90;99.90;;;;;;5052980;28;20481;-57
2023/05/14 08:58:35;;;;;;;3.13;1.83;;;11.70;99.90;;;;;;5053333;28;20539;-56
2023/05/14 09:01:01;;;;;;;2.43;1.33;;;11.90;99.90;;;;;;5053133;28;20527;-56
2023/05/14 09:03:31;;;;;;;2.37;1.73;;;11.70;99.90;;;;;;5053586;28;20459;-56
2023/05/14 09:05:58;;;;;;;1.60;1.20;;;11.50;99.90;;;;;;5051360;28;20600;-55
2023/05/14 09:08:25;;;;;;;1.57;1.00;;;11.40;99.90;;;;;;5050687;28;20504;-57
2023/05/14 09:10:52;;;;;;;1.80;1.40;;;11.40;99.90;;;;;;5051899;28;20449;-56
2023/05/14 09:13:19;;;;;;;1.47;0.97;;;11.40;99.90;;;;;;5052400;28;20489;-56
2023/05/14 09:15:47;;;;;;;1.60;1.10;;;11.40;99.90;;;;;;5049258;28;20565;-57
2023/05/14 09:18:14;;;;;;;1.30;0.70;;;11.40;99.90;;;;;;5054092;28;21284;-57
2023/05/14 09:20:43;;;;;;;1.30;0.90;;;11.60;99.90;;;;;;5048991;28;20548;-57
2023/05/14 09:23:10;;;;;;;1.43;0.97;;;11.60;99.90;;;;;;5047096;28;20469;-57
2023/05/14 09:25:37;;;;;;;1.03;0.67;;;11.70;99.90;;;;;;5048188;28;20531;-58
2023/05/14 09:28:08;;;;;;;1.63;1.27;;;11.90;99.90;;;;;;5059082;28;20595;-56
2023/05/14 09:30:35;;;;;;;2.10;1.57;;;11.90;99.90;;;;;;5059292;28;20514;-56
2023/05/14 09:33:03;;;;;;;1.10;0.97;;;11.90;99.90;;;;;;5052704;28;20452;-56
2023/05/14 09:35:31;;;;;;;5.90;1.00;;;12.00;99.90;;;;;;5059487;28;20841;-56
2023/05/14 09:37:59;;;;;;;1.93;1.00;;;12.00;99.90;;;;;;5049028;28;20469;-56
2023/05/14 09:40:26;;;;;;;2.33;1.23;;;12.10;99.90;;;;;;5051622;28;20480;-56
2023/05/14 09:42:55;;;;;;;1.53;1.13;;;12.20;99.90;;;;;;5060195;28;20892;-56
2023/05/14 09:45:22;;;;;;;1.93;1.37;;;12.20;99.90;;;;;;5052098;28;20787;-56
2023/05/14 09:47:49;;;;;;;1.63;1.13;;;12.30;99.90;;;;;;5050637;28;20485;-56
2023/05/14 09:50:16;;;;;;;3.20;1.77;;;12.10;99.90;;;;;;5051871;28;20886;-56
2023/05/14 09:52:42;;;;;;;1.90;0.90;;;11.90;99.90;;;;;;5052092;28;20543;-56
2023/05/14 09:55:11;;;;;;;1.60;1.27;;;12.10;99.90;;;;;;5062654;28;20546;-56
2023/05/14 09:57:38;;;;;;;1.80;1.20;;;12.00;99.90;;;;;;5059022;28;20584;-56
2023/05/14 10:00:07;;;;;;;1.30;1.00;;;11.70;99.90;;;;;;5051404;28;20493;-57
2023/05/14 10:02:37;;;;;;;1.60;1.23;;;11.90;99.90;;;;;;5054794;28;20501;-56
2023/05/14 10:05:05;;;;;;;1.30;1.03;;;12.00;99.90;;;;;;5051926;28;20467;-55
2023/05/14 10:07:38;;;;;;;1.40;1.10;;;12.10;99.90;;;;;;5051800;28;20430;-57
2023/05/14 10:10:08;;;;;;;1.70;1.50;;;12.30;99.90;;;;;;5051419;28;20480;-57
2023/05/14 10:12:40;;;;;;;1.87;1.70;;;12.60;99.90;;;;;;5055530;28;20556;-56
2023/05/14 10:15:16;;;;;;;2.00;1.20;;;12.60;99.90;;;;;;5055047;28;20448;-56
2023/05/14 10:17:49;;;;;;;1.70;1.50;;;12.60;99.90;;;;;;5054514;28;21046;-57
2023/05/14 10:20:16;;;;;;;2.43;1.50;;;12.60;99.90;;;;;;5042505;28;20546;-56
2023/05/14 10:22:43;;;;;;;1.50;0.97;;;12.40;99.90;;;;;;5048427;28;20954;-56
2023/05/14 10:25:11;;;;;;;1.30;1.00;;;12.30;99.90;;;;;;5049355;28;20468;-58
2023/05/14 10:27:41;;;;;;;1.50;1.07;;;12.70;99.90;;;;;;5050666;28;20477;-57
2023/05/14 10:30:12;;;;;;;1.50;1.00;;;12.70;99.90;;;;;;5051205;28;20871;-56
2023/05/14 10:32:40;;;;;;;1.27;1.03;;;12.80;99.90;;;;;;5050652;28;20448;-56
2023/05/14 10:35:16;;;;;;;1.97;1.10;;;12.80;99.90;;;;;;5050083;28;20446;-57
2023/05/14 10:37:45;;;;;;;1.63;0.97;;;12.80;99.90;;;;;;5049311;28;20508;-56
2023/05/14 10:40:13;;;;;;;1.30;1.10;;;12.90;99.90;;;;;;5043913;28;20448;-56
2023/05/14 10:42:42;;;;;;;1.47;1.00;;;12.90;99.90;;;;;;5049116;28;20527;-56
2023/05/14 10:45:11;;;;;;;3.50;1.00;;;12.90;99.90;;;;;;5049110;28;20460;-58
2023/05/14 10:47:40;;;;;;;1.47;1.10;;;12.60;99.90;;;;;;5050217;28;20525;-56
2023/05/14 10:50:09;;;;;;;1.50;1.33;;;12.40;99.90;;;;;;5042178;28;20477;-55
2023/05/14 10:52:37;;;;;;;2.83;1.20;;;12.40;99.90;;;;;;5020900;28;20504;-57
2023/05/14 10:55:07;;;;;;;1.30;0.90;;;12.50;99.90;;;;;;5022078;28;20898;-57
2023/05/14 10:57:36;;;;;;;1.43;1.17;;;12.30;99.90;;;;;;5032934;28;20482;-58
2023/05/14 11:00:07;;;;;;;1.40;0.97;;;12.30;99.90;;;;;;5047430;28;20964;-56
2023/05/14 11:02:36;;;;;;;1.83;1.20;;;12.40;99.90;;;;;;5049056;28;20459;-56
2023/05/14 11:05:07;;;;;;;1.50;1.03;;;12.50;99.90;;;;;;5048307;28;20968;-56
2023/05/14 11:07:35;;;;;;;1.70;1.30;;;12.60;99.90;;;;;;5048097;28;20441;-57
2023/05/14 11:10:05;;;;;;;1.50;1.17;;;12.60;99.90;;;;;;5050366;28;20528;-57
2023/05/14 11:12:33;;;;;;;1.73;1.10;;;12.60;99.90;;;;;;5049355;28;20449;-56
2023/05/14 11:15:02;;;;;;;1.70;1.40;;;12.50;99.90;;;;;;5049995;28;20888;-56
2023/05/14 11:17:32;;;;;;;2.37;1.50;;;12.50;99.90;;;;;;5048083;28;20482;-56
2023/05/14 11:19:59;;;;;;;1.70;1.20;;;12.60;99.90;;;;;;5049667;28;20444;-57
2023/05/14 11:22:26;;;;;;;1.43;1.13;;;12.60;99.90;;;;;;5049742;28;20473;-56
2023/05/14 11:24:53;;;;;;;1.90;1.20;;;12.60;99.90;;;;;;5049997;28;20469;-57
2023/05/14 11:27:21;;;;;;;1.73;1.23;;;12.60;99.90;;;;;;5049688;28;20552;-57
2023/05/14 11:29:49;;;;;;;2.00;1.20;;;12.60;99.90;;;;;;5048879;28;20528;-57
2023/05/14 11:32:17;;;;;;;1.60;1.40;;;12.60;99.90;;;;;;5046428;28;20861;-57
2023/05/14 11:34:45;;;;;;;2.00;1.23;;;12.60;99.90;;;;;;5048805;28;20531;-56
2023/05/14 11:37:13;;;;;;;1.60;1.37;;;12.50;99.90;;;;;;5047975;28;20505;-57
2023/05/14 11:39:47;;;;;;;1.90;1.43;;;12.60;99.90;;;;;;5049012;28;20895;-55
2023/05/14 11:42:16;;;;;;;2.20;1.27;;;12.60;99.90;;;;;;5042703;28;20544;-56
2023/05/14 11:44:44;;;;;;;2.60;1.33;;;12.60;99.90;;;;;;5049460;28;20465;-56
2023/05/14 11:47:12;;;;;;;1.57;1.27;;;12.80;99.90;;;;;;5049712;28;20491;-57
2023/05/14 11:49:39;;;;;;;2.50;1.10;;;12.90;99.90;;;;;;5053243;28;20463;-56
2023/05/14 11:52:10;;;;;;;5.23;2.80;;;12.90;99.90;;;;;;5053876;28;20489;-57
2023/05/14 11:54:37;;;;;;;2.90;1.60;;;13.00;99.90;;;;;;5054024;28;20445;-56
2023/05/14 11:57:09;;;;;;;2.37;1.20;;;13.00;99.90;;;;;;5053179;28;20509;-57
2023/05/14 11:59:36;;;;;;;2.17;1.10;;;13.00;99.90;;;;;;5048761;28;20492;-56
2023/05/14 12:02:04;;;;;;;2.70;1.70;;;13.00;99.90;;;;;;5047854;28;20544;-58
2023/05/14 12:04:31;;;;;;;1.40;1.30;;;13.10;99.90;;;;;;5050364;28;20457;-58
2023/05/14 12:07:00;;;;;;;1.47;1.37;;;13.00;99.90;;;;;;5050682;28;20477;-56
2023/05/14 12:09:28;;;;;;;1.50;1.10;;;13.00;99.90;;;;;;5051272;28;20552;-57
2023/05/14 12:11:55;;;;;;;2.20;1.70;;;13.10;99.90;;;;;;5051269;28;20461;-56
2023/05/14 12:14:23;;;;;;;2.37;1.80;;;13.10;99.90;;;;;;5051818;28;20438;-57
2023/05/14 12:16:51;;;;;;;1.53;1.43;;;13.00;99.90;;;;;;5049600;28;20565;-57
2023/05/14 12:19:20;;;;;;;2.53;1.80;;;13.10;99.90;;;;;;5056029;28;20502;-56
2023/05/14 12:21:49;;;;;;;2.07;1.67;;;13.10;99.90;;;;;;5051781;28;20453;-56
2023/05/14 12:24:18;;;;;;;2.00;1.57;;;13.20;99.90;;;;;;5051205;28;21023;-57
2023/05/14 12:26:47;;;;;;;1.43;1.20;;;13.20;99.90;;;;;;5052070;28;20489;-56
2023/05/14 12:29:16;;;;;;;2.40;1.63;;;13.20;99.90;;;;;;5049335;28;20541;-57
2023/05/14 12:31:47;;;;;;;1.70;1.40;;;13.20;99.90;;;;;;5049968;28;20503;-56
2023/05/14 12:34:14;;;;;;;1.40;1.20;;;13.20;99.90;;;;;;5049527;28;20508;-56
2023/05/14 12:36:42;;;;;;;2.50;1.53;;;13.20;99.90;;;;;;5051553;28;20560;-55
2023/05/14 12:39:11;;;;;;;3.13;1.23;;;13.30;99.90;;;;;;5052616;28;20489;-56
2023/05/14 12:41:38;;;;;;;1.70;1.50;;;13.30;99.90;;;;;;5053128;28;20967;-56
2023/05/14 12:44:06;;;;;;;1.80;1.60;;;13.30;99.90;;;;;;5050654;28;20457;-57
2023/05/14 12:46:33;;;;;;;1.67;1.47;;;13.30;99.90;;;;;;5052255;28;20576;-57
2023/05/14 12:49:01;;;;;;;2.80;1.67;;;13.30;99.90;;;;;;5051893;28;20458;-56
2023/05/14 12:51:28;;;;;;;1.77;1.57;;;13.40;99.90;;;;;;5051394;28;20493;-57
2023/05/14 12:53:55;;;;;;;2.77;1.50;;;13.40;99.90;;;;;;5043971;28;20979;-57
2023/05/14 12:56:26;;;;;;;1.80;1.33;;;13.40;99.90;;;;;;5050010;28;20512;-56